Spring Hill, KS (66083)

5:59 AM CST on December 18, 2014 (GMT -0600)
StoneBridge Meadows | Change Station
CLOSE
Current Station
Personal Weather Station
Location: Olathe, KS
Elevation: 1075 ft
Nearby Weather Stations
Active Advisory: Winter Weather Advisory Active Notice: Local Storm Report

Elev 1075 ft 38.83 °N, 94.79 °W | Updated 11 seconds ago

Snow
Snow
28.1 °F
Feels Like 28 °F
N
1.0
Wind Variable Wind from ENE
Gusts 5.0 mph

Today
High -- | Low -- °F
--% Chance of Precip.
Yesterday
High -- | Low -- °F
Precip. -- in
7:32 AM 4:59 PM
Waning Crescent, 15% visible
Pressure 30.19 in
Visibility 3.0 miles
Clouds Overcast 2100 ft
Windchill 28 °F
Dew Point 26 °F
Humidity 90%
Rainfall 0.00 in
Snow Depth Not available.
UV 0 out of 12
Pollen .10 out of 12
Air Quality Not available.
Flu Activity Not available.
SPECI KIXD 181140Z AUTO 07005KT 3SM -SN BR OVC021 M02/M03 A3019 RMK AO2 P0000 T10221028

More Conditions Fewer Conditions

Pressure 30.19 in
Visibility 3.0 miles
Clouds Overcast 2100 ft
Windchill 28 °F
Dew Point 26 °F
Humidity 90%
Rainfall 0.00 in
Snow Depth Not available.
UV 0 out of 12
Pollen .10 out of 12
Air Quality Not available.
Flu Activity Not available.
SPECI KIXD 181140Z AUTO 07005KT 3SM -SN BR OVC021 M02/M03 A3019 RMK AO2 P0000 T10221028

More Conditions Fewer Conditions

10-Day Weather Forecast

Almanac

Astronomy

Dec. 18, 2014 Rise Set
Actual Time
Civil Twilight
Nautical Twilight
Astronomical Twilight
Moon
Length of Visible Light
Length of Day
Tomorrow will be .
, % of the Moon is Illuminated

Today's Extremes

State Highs State Lows

Community

WunderPhotos

Upload Photos

1,778,919 photos uploaded!

WunderBlogs® & News

Nearby

Air Quality

  Air Quality AQ Index Pollutant
Not available.

Snow Depth

Station Depth Elevation

Earthquake Activity

City Distance Mag. Time & Date
Minimum magnitude displayed is 2.5.

Coastal Water Temperatures

Place Temperature

Nearby Weather Stations